General WM J Fox Airfield
KWJF : rendu visible

Aérodrome :











RETROUVEZ-NOUS SUR...

 
LOGIN :

S'inscrire | Disclaimer

   EN    FR    IT 

 









Légende :    VFR   VFR Marginal   IFR   IFR Intensif   IFR Très Intensif
Visi : 
Plafond : 
>= 8 km
>= 3000ft
5 à 8 km
1000 à 3000 ft
1500m à 5 km
500 à 1000 ft
800 à 1500m
200 à 500 ft
< 800m
< 200 ft
Symboles :   Orages  Brouillard  Fortes neiges  Fortes précipitations  Vent > 20 kt






- Altitude de l'aérodrome : 2351 ft


KWJF - General WM J Fox

DERNIER METAR :
  • 250156Z 25017KT 10SM -RA CLR 28/01 A2990 RMK AO2 SLP112 P0000 T02780006

METARs EXPIRÉS :
  • 250056Z 23016G22KT 10SM -RA CLR 29/06 A2988 RMK AO2 RAB37 SLP108 P0000 T02940056
  • 242356Z VRB03KT 10SM CLR 31/M07 A2990 RMK AO2 SLP109 T03111067 10317 20261 56018

TAF KWJF
Valide du 25 à 00h jusqu'au 26 à 00h UTC


242346Z 2500/2524 29010KT P6SM SKC
FM250600 25007KT P6SM SKC
FM250900 VRB03KT P6SM SKC
FM251800 06010KT P6SM SKC
FIR KZLA / Amérique du Nord



MET'MAP, la Météo Aéronautique d'un coup d'oeil ! - Copyright ORBIFLY Décembre 2007 - Disclaimer

ORBIFLY MET'MAP TEAM :

Programmation & Développement : Alexandra Zaïnal
Sur une idée originale de : Baudouin d'Aumeries
Assistance à la programmation : Marc-Olivier Méhu
Soutien technique & logistique : Manuel Goepfert

Contact : metmap@orbifly.com




SOURCES & CREDITS :

   NOAA       Earth
Advisory